sensor_id;sensor_type;location;lat;lon;timestamp;P1;durP1;ratioP1;P2;durP2;ratioP2
62479;SDS011;48526;48.846;2.322;2022-12-07T00:02:12;48.75;;;40.25;;
62479;SDS011;48526;48.846;2.322;2022-12-07T00:04:39;46.75;;;36.75;;
62479;SDS011;48526;48.846;2.322;2022-12-07T00:07:05;39.25;;;37.75;;
62479;SDS011;48526;48.846;2.322;2022-12-07T00:09:38;51.25;;;40.75;;
62479;SDS011;48526;48.846;2.322;2022-12-07T00:12:04;47.75;;;40.00;;
62479;SDS011;48526;48.846;2.322;2022-12-07T00:14:50;55.75;;;40.00;;
62479;SDS011;48526;48.846;2.322;2022-12-07T00:17:37;41.75;;;28.00;;
62479;SDS011;48526;48.846;2.322;2022-12-07T00:20:03;51.50;;;40.25;;
62479;SDS011;48526;48.846;2.322;2022-12-07T00:22:29;49.75;;;39.00;;
62479;SDS011;48526;48.846;2.322;2022-12-07T00:24:55;55.25;;;39.75;;
62479;SDS011;48526;48.846;2.322;2022-12-07T00:27:22;41.25;;;36.50;;
62479;SDS011;48526;48.846;2.322;2022-12-07T00:29:47;51.25;;;41.50;;
62479;SDS011;48526;48.846;2.322;2022-12-07T05:05:28;33.00;;;24.25;;
62479;SDS011;48526;48.846;2.322;2022-12-07T05:07:59;26.50;;;22.25;;
62479;SDS011;48526;48.846;2.322;2022-12-07T05:10:24;28.75;;;22.75;;
62479;SDS011;48526;48.846;2.322;2022-12-07T05:12:52;25.75;;;22.25;;
62479;SDS011;48526;48.846;2.322;2022-12-07T05:15:24;27.25;;;20.50;;
62479;SDS011;48526;48.846;2.322;2022-12-07T05:22:05;25.50;;;22.00;;
62479;SDS011;48526;48.846;2.322;2022-12-07T05:24:46;19.25;;;16.25;;
62479;SDS011;48526;48.846;2.322;2022-12-07T05:27:25;22.00;;;17.50;;
62479;SDS011;48526;48.846;2.322;2022-12-07T05:42:44;24.00;;;21.00;;
62479;SDS011;48526;48.846;2.322;2022-12-07T05:45:11;25.75;;;24.25;;
62479;SDS011;48526;48.846;2.322;2022-12-07T05:47:38;25.50;;;24.00;;
62479;SDS011;48526;48.846;2.322;2022-12-07T05:50:16;25.25;;;21.25;;
62479;SDS011;48526;48.846;2.322;2022-12-07T05:52:48;25.50;;;22.00;;
62479;SDS011;48526;48.846;2.322;2022-12-07T05:55:17;23.75;;;18.75;;
62479;SDS011;48526;48.846;2.322;2022-12-07T05:57:47;30.00;;;21.25;;
62479;SDS011;48526;48.846;2.322;2022-12-07T06:11:03;22.25;;;21.00;;
62479;SDS011;48526;48.846;2.322;2022-12-07T06:16:35;31.50;;;26.50;;
62479;SDS011;48526;48.846;2.322;2022-12-07T06:22:04;27.50;;;23.50;;
62479;SDS011;48526;48.846;2.322;2022-12-07T06:24:30;26.25;;;25.00;;
62479;SDS011;48526;48.846;2.322;2022-12-07T06:27:02;26.25;;;20.50;;
62479;SDS011;48526;48.846;2.322;2022-12-07T06:29:27;28.75;;;22.50;;
62479;SDS011;48526;48.846;2.322;2022-12-07T06:31:55;34.50;;;22.75;;
62479;SDS011;48526;48.846;2.322;2022-12-07T06:34:20;11.75;;;5.50;;
62479;SDS011;48526;48.846;2.322;2022-12-07T06:36:49;20.75;;;20.75;;
62479;SDS011;48526;48.846;2.322;2022-12-07T06:39:21;27.50;;;20.25;;
62479;SDS011;48526;48.846;2.322;2022-12-07T06:41:48;29.50;;;23.75;;
62479;SDS011;48526;48.846;2.322;2022-12-07T06:44:14;24.25;;;21.75;;
62479;SDS011;48526;48.846;2.322;2022-12-07T06:46:40;25.00;;;21.75;;
62479;SDS011;48526;48.846;2.322;2022-12-07T06:49:05;32.50;;;25.75;;
62479;SDS011;48526;48.846;2.322;2022-12-07T06:51:31;40.50;;;33.00;;
62479;SDS011;48526;48.846;2.322;2022-12-07T06:53:58;26.00;;;24.25;;
62479;SDS011;48526;48.846;2.322;2022-12-07T06:56:23;22.50;;;19.00;;
62479;SDS011;48526;48.846;2.322;2022-12-07T06:58:49;25.75;;;24.00;;
62479;SDS011;48526;48.846;2.322;2022-12-07T07:01:17;33.50;;;24.25;;
62479;SDS011;48526;48.846;2.322;2022-12-07T07:03:43;23.50;;;21.50;;
62479;SDS011;48526;48.846;2.322;2022-12-07T07:06:10;27.25;;;22.25;;
62479;SDS011;48526;48.846;2.322;2022-12-07T07:08:37;20.25;;;18.00;;
62479;SDS011;48526;48.846;2.322;2022-12-07T07:11:04;28.00;;;22.00;;
62479;SDS011;48526;48.846;2.322;2022-12-07T07:13:30;32.75;;;23.00;;
62479;SDS011;48526;48.846;2.322;2022-12-07T07:15:56;22.75;;;19.75;;
62479;SDS011;48526;48.846;2.322;2022-12-07T07:18:22;21.25;;;21.25;;
62479;SDS011;48526;48.846;2.322;2022-12-07T07:20:47;23.75;;;22.75;;
62479;SDS011;48526;48.846;2.322;2022-12-07T07:23:13;18.75;;;15.50;;
62479;SDS011;48526;48.846;2.322;2022-12-07T07:25:38;23.25;;;22.00;;
62479;SDS011;48526;48.846;2.322;2022-12-07T07:28:04;27.50;;;23.00;;
62479;SDS011;48526;48.846;2.322;2022-12-07T07:30:30;29.00;;;25.25;;
62479;SDS011;48526;48.846;2.322;2022-12-07T07:32:56;16.75;;;15.50;;
62479;SDS011;48526;48.846;2.322;2022-12-07T07:35:23;23.75;;;20.25;;
62479;SDS011;48526;48.846;2.322;2022-12-07T07:37:49;24.00;;;19.50;;
62479;SDS011;48526;48.846;2.322;2022-12-07T07:40:14;30.25;;;23.50;;
62479;SDS011;48526;48.846;2.322;2022-12-07T07:42:41;25.50;;;19.75;;
62479;SDS011;48526;48.846;2.322;2022-12-07T07:45:06;28.00;;;22.00;;
62479;SDS011;48526;48.846;2.322;2022-12-07T07:47:32;25.75;;;22.00;;
62479;SDS011;48526;48.846;2.322;2022-12-07T07:49:58;22.25;;;21.75;;
62479;SDS011;48526;48.846;2.322;2022-12-07T07:52:23;26.00;;;20.50;;
62479;SDS011;48526;48.846;2.322;2022-12-07T07:54:49;24.75;;;19.00;;
62479;SDS011;48526;48.846;2.322;2022-12-07T07:57:16;27.75;;;24.25;;
62479;SDS011;48526;48.846;2.322;2022-12-07T07:59:41;23.50;;;20.75;;
62479;SDS011;48526;48.846;2.322;2022-12-07T08:02:17;27.50;;;26.25;;
62479;SDS011;48526;48.846;2.322;2022-12-07T08:04:44;23.50;;;22.00;;
62479;SDS011;48526;48.846;2.322;2022-12-07T08:07:10;23.00;;;17.75;;
62479;SDS011;48526;48.846;2.322;2022-12-07T08:09:37;25.25;;;22.50;;
62479;SDS011;48526;48.846;2.322;2022-12-07T08:12:02;26.25;;;23.25;;
62479;SDS011;48526;48.846;2.322;2022-12-07T08:14:28;27.25;;;22.50;;
62479;SDS011;48526;48.846;2.322;2022-12-07T08:16:54;35.00;;;24.50;;
62479;SDS011;48526;48.846;2.322;2022-12-07T08:19:19;27.75;;;25.00;;
62479;SDS011;48526;48.846;2.322;2022-12-07T08:21:46;26.00;;;24.00;;
62479;SDS011;48526;48.846;2.322;2022-12-07T08:24:11;23.25;;;20.00;;
62479;SDS011;48526;48.846;2.322;2022-12-07T08:26:37;30.25;;;27.00;;
62479;SDS011;48526;48.846;2.322;2022-12-07T08:29:03;25.75;;;22.00;;
62479;SDS011;48526;48.846;2.322;2022-12-07T08:31:28;26.75;;;24.50;;
62479;SDS011;48526;48.846;2.322;2022-12-07T08:33:54;39.00;;;32.50;;
62479;SDS011;48526;48.846;2.322;2022-12-07T08:36:19;30.50;;;27.25;;
62479;SDS011;48526;48.846;2.322;2022-12-07T08:38:46;32.25;;;24.75;;
62479;SDS011;48526;48.846;2.322;2022-12-07T08:41:12;27.00;;;24.25;;
62479;SDS011;48526;48.846;2.322;2022-12-07T08:43:37;26.50;;;20.00;;
62479;SDS011;48526;48.846;2.322;2022-12-07T08:46:18;27.50;;;23.75;;
62479;SDS011;48526;48.846;2.322;2022-12-07T08:49:13;25.00;;;20.00;;
62479;SDS011;48526;48.846;2.322;2022-12-07T08:51:41;23.00;;;20.50;;
62479;SDS011;48526;48.846;2.322;2022-12-07T08:54:11;33.75;;;26.00;;
62479;SDS011;48526;48.846;2.322;2022-12-07T08:56:39;30.00;;;24.25;;
62479;SDS011;48526;48.846;2.322;2022-12-07T08:59:04;26.25;;;22.25;;
62479;SDS011;48526;48.846;2.322;2022-12-07T09:01:33;31.25;;;23.75;;
62479;SDS011;48526;48.846;2.322;2022-12-07T09:03:58;28.75;;;23.25;;
62479;SDS011;48526;48.846;2.322;2022-12-07T09:06:24;25.00;;;18.25;;
62479;SDS011;48526;48.846;2.322;2022-12-07T09:08:50;30.00;;;20.75;;
62479;SDS011;48526;48.846;2.322;2022-12-07T09:11:17;24.25;;;20.00;;
62479;SDS011;48526;48.846;2.322;2022-12-07T09:13:42;27.00;;;24.50;;
62479;SDS011;48526;48.846;2.322;2022-12-07T09:16:08;26.75;;;24.25;;
62479;SDS011;48526;48.846;2.322;2022-12-07T09:18:36;31.75;;;26.50;;
62479;SDS011;48526;48.846;2.322;2022-12-07T09:21:03;25.50;;;22.50;;
62479;SDS011;48526;48.846;2.322;2022-12-07T09:23:28;25.50;;;23.25;;
62479;SDS011;48526;48.846;2.322;2022-12-07T09:25:54;26.75;;;24.00;;
62479;SDS011;48526;48.846;2.322;2022-12-07T09:28:19;24.00;;;23.50;;
62479;SDS011;48526;48.846;2.322;2022-12-07T09:30:45;20.25;;;14.75;;
62479;SDS011;48526;48.846;2.322;2022-12-07T09:33:11;33.75;;;26.00;;
62479;SDS011;48526;48.846;2.322;2022-12-07T09:35:37;29.25;;;24.75;;
62479;SDS011;48526;48.846;2.322;2022-12-07T09:38:04;27.50;;;24.25;;
62479;SDS011;48526;48.846;2.322;2022-12-07T09:40:29;24.75;;;21.25;;
62479;SDS011;48526;48.846;2.322;2022-12-07T09:42:55;27.25;;;24.75;;
62479;SDS011;48526;48.846;2.322;2022-12-07T09:45:25;31.25;;;23.50;;
62479;SDS011;48526;48.846;2.322;2022-12-07T09:47:54;27.75;;;22.75;;
62479;SDS011;48526;48.846;2.322;2022-12-07T09:50:23;30.25;;;22.50;;
62479;SDS011;48526;48.846;2.322;2022-12-07T09:52:50;29.00;;;23.25;;
62479;SDS011;48526;48.846;2.322;2022-12-07T09:55:24;24.50;;;18.00;;
62479;SDS011;48526;48.846;2.322;2022-12-07T09:57:52;30.75;;;24.25;;
62479;SDS011;48526;48.846;2.322;2022-12-07T10:00:19;27.50;;;18.00;;
62479;SDS011;48526;48.846;2.322;2022-12-07T10:02:54;23.75;;;19.50;;
62479;SDS011;48526;48.846;2.322;2022-12-07T10:08:02;23.25;;;22.50;;
62479;SDS011;48526;48.846;2.322;2022-12-07T10:10:32;34.00;;;26.00;;
62479;SDS011;48526;48.846;2.322;2022-12-07T10:13:03;26.00;;;21.25;;
62479;SDS011;48526;48.846;2.322;2022-12-07T10:20:47;27.75;;;20.75;;
62479;SDS011;48526;48.846;2.322;2022-12-07T10:23:17;28.75;;;25.75;;
62479;SDS011;48526;48.846;2.322;2022-12-07T10:25:43;28.50;;;22.25;;
62479;SDS011;48526;48.846;2.322;2022-12-07T10:33:32;37.00;;;28.50;;
62479;SDS011;48526;48.846;2.322;2022-12-07T10:36:01;29.50;;;21.50;;
62479;SDS011;48526;48.846;2.322;2022-12-07T10:38:49;36.00;;;26.25;;
62479;SDS011;48526;48.846;2.322;2022-12-07T10:41:16;25.00;;;20.50;;
62479;SDS011;48526;48.846;2.322;2022-12-07T10:43:49;23.00;;;20.00;;
62479;SDS011;48526;48.846;2.322;2022-12-07T10:59:52;25.00;;;22.50;;
62479;SDS011;48526;48.846;2.322;2022-12-07T11:08:05;25.75;;;19.25;;
62479;SDS011;48526;48.846;2.322;2022-12-07T11:11:09;30.00;;;27.00;;
62479;SDS011;48526;48.846;2.322;2022-12-07T11:16:50;33.50;;;24.50;;
62479;SDS011;48526;48.846;2.322;2022-12-07T11:19:29;27.00;;;22.00;;
62479;SDS011;48526;48.846;2.322;2022-12-07T11:22:09;25.75;;;23.00;;
62479;SDS011;48526;48.846;2.322;2022-12-07T11:28:00;22.50;;;19.25;;
62479;SDS011;48526;48.846;2.322;2022-12-07T11:30:51;27.50;;;23.75;;
62479;SDS011;48526;48.846;2.322;2022-12-07T11:36:43;26.00;;;21.50;;
62479;SDS011;48526;48.846;2.322;2022-12-07T11:39:33;16.75;;;14.00;;
62479;SDS011;48526;48.846;2.322;2022-12-07T11:42:36;19.00;;;15.75;;
62479;SDS011;48526;48.846;2.322;2022-12-07T11:47:50;18.75;;;18.00;;
62479;SDS011;48526;48.846;2.322;2022-12-07T11:50:27;20.00;;;17.25;;
62479;SDS011;48526;48.846;2.322;2022-12-07T11:58:44;24.50;;;19.00;;
62479;SDS011;48526;48.846;2.322;2022-12-07T12:06:37;21.50;;;19.50;;
62479;SDS011;48526;48.846;2.322;2022-12-07T12:14:48;30.25;;;28.25;;
62479;SDS011;48526;48.846;2.322;2022-12-07T12:20:36;30.50;;;25.00;;
62479;SDS011;48526;48.846;2.322;2022-12-07T12:23:19;28.50;;;23.00;;
62479;SDS011;48526;48.846;2.322;2022-12-07T12:25:49;32.25;;;30.25;;
62479;SDS011;48526;48.846;2.322;2022-12-07T12:28:20;29.75;;;21.50;;
62479;SDS011;48526;48.846;2.322;2022-12-07T12:31:16;30.75;;;26.50;;
62479;SDS011;48526;48.846;2.322;2022-12-07T12:34:29;34.75;;;26.00;;
62479;SDS011;48526;48.846;2.322;2022-12-07T12:40:34;25.00;;;24.25;;
62479;SDS011;48526;48.846;2.322;2022-12-07T12:42:57;29.00;;;23.25;;
62479;SDS011;48526;48.846;2.322;2022-12-07T12:45:27;28.25;;;26.00;;
62479;SDS011;48526;48.846;2.322;2022-12-07T12:48:10;28.25;;;21.00;;
62479;SDS011;48526;48.846;2.322;2022-12-07T12:51:39;24.50;;;24.50;;
62479;SDS011;48526;48.846;2.322;2022-12-07T12:54:04;26.00;;;24.50;;
62479;SDS011;48526;48.846;2.322;2022-12-07T13:05:02;38.25;;;25.25;;
62479;SDS011;48526;48.846;2.322;2022-12-07T13:12:57;33.25;;;27.50;;
62479;SDS011;48526;48.846;2.322;2022-12-07T13:20:57;30.00;;;27.50;;
62479;SDS011;48526;48.846;2.322;2022-12-07T13:26:19;30.00;;;27.75;;
62479;SDS011;48526;48.846;2.322;2022-12-07T13:31:46;33.25;;;26.75;;
62479;SDS011;48526;48.846;2.322;2022-12-07T13:34:36;30.50;;;24.25;;
62479;SDS011;48526;48.846;2.322;2022-12-07T13:39:56;34.25;;;27.00;;
62479;SDS011;48526;48.846;2.322;2022-12-07T13:42:32;29.50;;;27.25;;
62479;SDS011;48526;48.846;2.322;2022-12-07T13:44:59;33.00;;;29.25;;
62479;SDS011;48526;48.846;2.322;2022-12-07T13:47:47;32.50;;;26.25;;
62479;SDS011;48526;48.846;2.322;2022-12-07T13:50:27;34.75;;;30.75;;
62479;SDS011;48526;48.846;2.322;2022-12-07T13:52:58;31.50;;;28.75;;
62479;SDS011;48526;48.846;2.322;2022-12-07T13:55:25;32.00;;;29.25;;
62479;SDS011;48526;48.846;2.322;2022-12-07T13:57:52;36.00;;;31.50;;
62479;SDS011;48526;48.846;2.322;2022-12-07T14:00:20;30.75;;;27.00;;
62479;SDS011;48526;48.846;2.322;2022-12-07T14:02:57;32.25;;;24.50;;
62479;SDS011;48526;48.846;2.322;2022-12-07T14:05:31;29.50;;;25.75;;
62479;SDS011;48526;48.846;2.322;2022-12-07T14:10:25;31.50;;;21.75;;
62479;SDS011;48526;48.846;2.322;2022-12-07T14:13:00;27.25;;;24.00;;
62479;SDS011;48526;48.846;2.322;2022-12-07T14:15:31;25.00;;;22.25;;
62479;SDS011;48526;48.846;2.322;2022-12-07T14:17:58;29.75;;;22.75;;
62479;SDS011;48526;48.846;2.322;2022-12-07T14:20:30;25.25;;;20.50;;
62479;SDS011;48526;48.846;2.322;2022-12-07T14:23:00;20.00;;;19.25;;
62479;SDS011;48526;48.846;2.322;2022-12-07T14:25:43;25.50;;;24.00;;
62479;SDS011;48526;48.846;2.322;2022-12-07T14:28:26;22.25;;;18.00;;
62479;SDS011;48526;48.846;2.322;2022-12-07T14:30:53;24.75;;;20.00;;
62479;SDS011;48526;48.846;2.322;2022-12-07T14:33:18;24.00;;;23.75;;
62479;SDS011;48526;48.846;2.322;2022-12-07T14:35:45;22.75;;;20.50;;
62479;SDS011;48526;48.846;2.322;2022-12-07T14:38:11;24.50;;;20.00;;
62479;SDS011;48526;48.846;2.322;2022-12-07T14:40:36;32.25;;;23.50;;
62479;SDS011;48526;48.846;2.322;2022-12-07T14:43:04;44.00;;;30.75;;
62479;SDS011;48526;48.846;2.322;2022-12-07T14:45:34;30.00;;;23.75;;
62479;SDS011;48526;48.846;2.322;2022-12-07T14:48:01;43.00;;;30.75;;
62479;SDS011;48526;48.846;2.322;2022-12-07T14:50:29;40.25;;;23.25;;
62479;SDS011;48526;48.846;2.322;2022-12-07T14:52:56;27.75;;;22.75;;
62479;SDS011;48526;48.846;2.322;2022-12-07T14:55:27;35.25;;;25.00;;
62479;SDS011;48526;48.846;2.322;2022-12-07T14:57:54;23.25;;;19.75;;
62479;SDS011;48526;48.846;2.322;2022-12-07T15:00:21;24.25;;;22.00;;
62479;SDS011;48526;48.846;2.322;2022-12-07T15:02:50;30.25;;;24.75;;
62479;SDS011;48526;48.846;2.322;2022-12-07T15:05:18;25.25;;;22.00;;
62479;SDS011;48526;48.846;2.322;2022-12-07T15:07:44;22.75;;;22.00;;
62479;SDS011;48526;48.846;2.322;2022-12-07T15:10:13;23.25;;;16.25;;
62479;SDS011;48526;48.846;2.322;2022-12-07T15:12:43;19.00;;;18.50;;
62479;SDS011;48526;48.846;2.322;2022-12-07T15:15:09;20.50;;;18.75;;
62479;SDS011;48526;48.846;2.322;2022-12-07T15:17:34;17.75;;;16.50;;
62479;SDS011;48526;48.846;2.322;2022-12-07T15:20:00;19.00;;;15.00;;
62479;SDS011;48526;48.846;2.322;2022-12-07T15:22:26;21.75;;;18.50;;
62479;SDS011;48526;48.846;2.322;2022-12-07T15:24:52;16.50;;;14.00;;
62479;SDS011;48526;48.846;2.322;2022-12-07T15:27:17;16.00;;;15.75;;
62479;SDS011;48526;48.846;2.322;2022-12-07T15:29:43;21.00;;;19.75;;
62479;SDS011;48526;48.846;2.322;2022-12-07T15:32:08;23.25;;;17.25;;
62479;SDS011;48526;48.846;2.322;2022-12-07T15:34:34;19.50;;;17.25;;
62479;SDS011;48526;48.846;2.322;2022-12-07T15:37:00;21.00;;;17.50;;
62479;SDS011;48526;48.846;2.322;2022-12-07T15:39:26;17.75;;;12.00;;
62479;SDS011;48526;48.846;2.322;2022-12-07T15:41:51;20.50;;;18.50;;
62479;SDS011;48526;48.846;2.322;2022-12-07T15:44:17;25.50;;;16.50;;
62479;SDS011;48526;48.846;2.322;2022-12-07T15:47:01;15.00;;;15.00;;
62479;SDS011;48526;48.846;2.322;2022-12-07T15:49:27;18.75;;;16.00;;
62479;SDS011;48526;48.846;2.322;2022-12-07T15:51:52;18.25;;;15.50;;
62479;SDS011;48526;48.846;2.322;2022-12-07T15:54:19;22.25;;;16.50;;
62479;SDS011;48526;48.846;2.322;2022-12-07T15:56:46;17.25;;;15.75;;
62479;SDS011;48526;48.846;2.322;2022-12-07T15:59:13;15.00;;;13.75;;
62479;SDS011;48526;48.846;2.322;2022-12-07T16:01:41;28.25;;;20.75;;
62479;SDS011;48526;48.846;2.322;2022-12-07T16:04:06;25.75;;;20.50;;
62479;SDS011;48526;48.846;2.322;2022-12-07T16:06:33;22.25;;;19.50;;
62479;SDS011;48526;48.846;2.322;2022-12-07T16:09:00;23.25;;;21.50;;
62479;SDS011;48526;48.846;2.322;2022-12-07T16:11:25;17.25;;;16.00;;
62479;SDS011;48526;48.846;2.322;2022-12-07T16:13:52;19.00;;;14.75;;
62479;SDS011;48526;48.846;2.322;2022-12-07T16:16:17;18.25;;;16.00;;
62479;SDS011;48526;48.846;2.322;2022-12-07T16:18:44;19.00;;;18.50;;
62479;SDS011;48526;48.846;2.322;2022-12-07T16:21:11;19.50;;;17.00;;
62479;SDS011;48526;48.846;2.322;2022-12-07T16:23:37;19.25;;;17.75;;
62479;SDS011;48526;48.846;2.322;2022-12-07T16:26:07;16.50;;;16.50;;
62479;SDS011;48526;48.846;2.322;2022-12-07T16:28:34;19.00;;;19.00;;
62479;SDS011;48526;48.846;2.322;2022-12-07T16:31:00;22.25;;;15.00;;
62479;SDS011;48526;48.846;2.322;2022-12-07T16:33:31;21.00;;;18.25;;
62479;SDS011;48526;48.846;2.322;2022-12-07T16:35:59;22.25;;;17.00;;
62479;SDS011;48526;48.846;2.322;2022-12-07T16:38:25;19.00;;;17.50;;
62479;SDS011;48526;48.846;2.322;2022-12-07T16:40:51;17.25;;;15.00;;
62479;SDS011;48526;48.846;2.322;2022-12-07T16:43:16;18.75;;;17.25;;
62479;SDS011;48526;48.846;2.322;2022-12-07T16:45:41;14.50;;;13.75;;
62479;SDS011;48526;48.846;2.322;2022-12-07T16:48:07;25.50;;;21.00;;
62479;SDS011;48526;48.846;2.322;2022-12-07T16:50:32;20.00;;;18.25;;
62479;SDS011;48526;48.846;2.322;2022-12-07T16:52:58;21.50;;;19.00;;
62479;SDS011;48526;48.846;2.322;2022-12-07T16:55:23;22.00;;;19.25;;
62479;SDS011;48526;48.846;2.322;2022-12-07T16:57:50;38.75;;;24.75;;
62479;SDS011;48526;48.846;2.322;2022-12-07T17:00:19;21.50;;;19.00;;
62479;SDS011;48526;48.846;2.322;2022-12-07T17:02:45;21.00;;;19.00;;
62479;SDS011;48526;48.846;2.322;2022-12-07T17:05:11;18.75;;;18.75;;
62479;SDS011;48526;48.846;2.322;2022-12-07T17:07:36;21.50;;;18.75;;
62479;SDS011;48526;48.846;2.322;2022-12-07T17:10:02;22.25;;;19.50;;
62479;SDS011;48526;48.846;2.322;2022-12-07T17:12:27;27.00;;;23.75;;
62479;SDS011;48526;48.846;2.322;2022-12-07T17:14:53;24.25;;;19.75;;
62479;SDS011;48526;48.846;2.322;2022-12-07T17:17:37;22.50;;;20.00;;
62479;SDS011;48526;48.846;2.322;2022-12-07T17:20:02;17.00;;;16.75;;
62479;SDS011;48526;48.846;2.322;2022-12-07T17:22:29;21.50;;;19.50;;
62479;SDS011;48526;48.846;2.322;2022-12-07T17:24:55;7.25;;;7.25;;
62479;SDS011;48526;48.846;2.322;2022-12-07T17:27:21;27.75;;;23.25;;
62479;SDS011;48526;48.846;2.322;2022-12-07T17:29:47;18.00;;;18.00;;
62479;SDS011;48526;48.846;2.322;2022-12-07T17:32:12;24.25;;;21.00;;
62479;SDS011;48526;48.846;2.322;2022-12-07T17:34:38;27.50;;;23.75;;
62479;SDS011;48526;48.846;2.322;2022-12-07T17:37:04;23.50;;;20.25;;
62479;SDS011;48526;48.846;2.322;2022-12-07T17:39:30;21.00;;;21.00;;
62479;SDS011;48526;48.846;2.322;2022-12-07T17:41:56;30.00;;;26.75;;
62479;SDS011;48526;48.846;2.322;2022-12-07T17:44:41;24.00;;;19.50;;
62479;SDS011;48526;48.846;2.322;2022-12-07T17:47:07;26.50;;;22.00;;
62479;SDS011;48526;48.846;2.322;2022-12-07T17:49:35;29.25;;;24.75;;
62479;SDS011;48526;48.846;2.322;2022-12-07T17:52:00;36.75;;;30.00;;
62479;SDS011;48526;48.846;2.322;2022-12-07T17:54:44;29.50;;;21.50;;
62479;SDS011;48526;48.846;2.322;2022-12-07T17:57:10;22.25;;;18.75;;
62479;SDS011;48526;48.846;2.322;2022-12-07T17:59:36;29.00;;;21.50;;
62479;SDS011;48526;48.846;2.322;2022-12-07T18:02:01;29.00;;;23.75;;
62479;SDS011;48526;48.846;2.322;2022-12-07T18:04:27;25.25;;;17.00;;
62479;SDS011;48526;48.846;2.322;2022-12-07T18:06:55;21.50;;;19.00;;
62479;SDS011;48526;48.846;2.322;2022-12-07T18:09:20;24.50;;;19.50;;
62479;SDS011;48526;48.846;2.322;2022-12-07T18:11:46;24.00;;;19.25;;
62479;SDS011;48526;48.846;2.322;2022-12-07T18:14:13;24.75;;;16.75;;
62479;SDS011;48526;48.846;2.322;2022-12-07T18:16:39;19.00;;;18.75;;
62479;SDS011;48526;48.846;2.322;2022-12-07T18:19:05;30.50;;;23.75;;
62479;SDS011;48526;48.846;2.322;2022-12-07T18:21:31;22.75;;;19.75;;
62479;SDS011;48526;48.846;2.322;2022-12-07T18:23:58;21.50;;;19.75;;
62479;SDS011;48526;48.846;2.322;2022-12-07T18:26:26;23.50;;;21.00;;
62479;SDS011;48526;48.846;2.322;2022-12-07T18:28:52;28.25;;;24.00;;
62479;SDS011;48526;48.846;2.322;2022-12-07T18:31:17;22.25;;;10.75;;
62479;SDS011;48526;48.846;2.322;2022-12-07T18:33:44;28.25;;;23.00;;
62479;SDS011;48526;48.846;2.322;2022-12-07T18:36:11;28.50;;;26.00;;
62479;SDS011;48526;48.846;2.322;2022-12-07T18:38:37;29.00;;;25.00;;
62479;SDS011;48526;48.846;2.322;2022-12-07T18:41:05;27.00;;;26.00;;
62479;SDS011;48526;48.846;2.322;2022-12-07T18:43:31;36.00;;;28.25;;
62479;SDS011;48526;48.846;2.322;2022-12-07T18:45:56;33.25;;;25.25;;
62479;SDS011;48526;48.846;2.322;2022-12-07T18:48:22;33.00;;;29.00;;
62479;SDS011;48526;48.846;2.322;2022-12-07T18:51:02;38.50;;;30.50;;
62479;SDS011;48526;48.846;2.322;2022-12-07T18:53:28;38.25;;;30.00;;
62479;SDS011;48526;48.846;2.322;2022-12-07T18:58:59;35.75;;;30.25;;
62479;SDS011;48526;48.846;2.322;2022-12-07T19:01:45;32.75;;;29.25;;
62479;SDS011;48526;48.846;2.322;2022-12-07T19:04:14;34.00;;;26.25;;
62479;SDS011;48526;48.846;2.322;2022-12-07T19:06:47;32.75;;;30.50;;
62479;SDS011;48526;48.846;2.322;2022-12-07T19:09:13;30.75;;;26.25;;
62479;SDS011;48526;48.846;2.322;2022-12-07T19:11:42;34.25;;;31.75;;
62479;SDS011;48526;48.846;2.322;2022-12-07T19:14:20;31.75;;;28.25;;
62479;SDS011;48526;48.846;2.322;2022-12-07T19:17:07;33.75;;;27.25;;
62479;SDS011;48526;48.846;2.322;2022-12-07T19:19:46;36.00;;;26.25;;
62479;SDS011;48526;48.846;2.322;2022-12-07T19:22:13;37.00;;;27.75;;
62479;SDS011;48526;48.846;2.322;2022-12-07T19:24:41;29.50;;;27.75;;
62479;SDS011;48526;48.846;2.322;2022-12-07T19:27:08;31.25;;;29.00;;
62479;SDS011;48526;48.846;2.322;2022-12-07T19:29:34;41.00;;;31.25;;
62479;SDS011;48526;48.846;2.322;2022-12-07T19:32:03;35.00;;;26.25;;
62479;SDS011;48526;48.846;2.322;2022-12-07T19:34:35;34.00;;;29.00;;
62479;SDS011;48526;48.846;2.322;2022-12-07T19:37:01;32.00;;;27.00;;
62479;SDS011;48526;48.846;2.322;2022-12-07T19:39:26;42.50;;;28.50;;
62479;SDS011;48526;48.846;2.322;2022-12-07T19:41:52;40.00;;;29.00;;
62479;SDS011;48526;48.846;2.322;2022-12-07T19:44:19;31.00;;;25.25;;
62479;SDS011;48526;48.846;2.322;2022-12-07T19:46:50;29.00;;;25.75;;
62479;SDS011;48526;48.846;2.322;2022-12-07T19:49:18;31.75;;;27.75;;
62479;SDS011;48526;48.846;2.322;2022-12-07T19:51:45;26.50;;;24.00;;
62479;SDS011;48526;48.846;2.322;2022-12-07T19:54:14;29.50;;;26.50;;
62479;SDS011;48526;48.846;2.322;2022-12-07T19:56:45;32.50;;;26.50;;
62479;SDS011;48526;48.846;2.322;2022-12-07T19:59:12;37.00;;;28.00;;
62479;SDS011;48526;48.846;2.322;2022-12-07T20:01:38;27.50;;;25.25;;
62479;SDS011;48526;48.846;2.322;2022-12-07T20:04:08;32.75;;;27.00;;
62479;SDS011;48526;48.846;2.322;2022-12-07T20:06:35;36.25;;;28.00;;
62479;SDS011;48526;48.846;2.322;2022-12-07T20:09:01;31.25;;;29.25;;
62479;SDS011;48526;48.846;2.322;2022-12-07T20:11:27;27.50;;;24.75;;
62479;SDS011;48526;48.846;2.322;2022-12-07T20:14:11;31.00;;;28.00;;
62479;SDS011;48526;48.846;2.322;2022-12-07T20:16:38;29.75;;;26.25;;
62479;SDS011;48526;48.846;2.322;2022-12-07T20:19:09;28.75;;;25.50;;
62479;SDS011;48526;48.846;2.322;2022-12-07T20:21:37;27.75;;;21.00;;
62479;SDS011;48526;48.846;2.322;2022-12-07T20:24:03;36.50;;;28.00;;
62479;SDS011;48526;48.846;2.322;2022-12-07T20:26:29;31.00;;;27.75;;
62479;SDS011;48526;48.846;2.322;2022-12-07T20:28:55;33.50;;;26.25;;
62479;SDS011;48526;48.846;2.322;2022-12-07T20:31:21;26.00;;;20.50;;
62479;SDS011;48526;48.846;2.322;2022-12-07T20:33:46;38.00;;;30.50;;
62479;SDS011;48526;48.846;2.322;2022-12-07T20:36:13;36.00;;;29.50;;
62479;SDS011;48526;48.846;2.322;2022-12-07T20:38:40;38.00;;;29.50;;
62479;SDS011;48526;48.846;2.322;2022-12-07T20:41:07;40.25;;;29.75;;
62479;SDS011;48526;48.846;2.322;2022-12-07T20:43:59;36.00;;;28.00;;
62479;SDS011;48526;48.846;2.322;2022-12-07T20:46:25;37.25;;;28.75;;
62479;SDS011;48526;48.846;2.322;2022-12-07T20:48:52;32.25;;;29.50;;
62479;SDS011;48526;48.846;2.322;2022-12-07T20:51:25;38.75;;;30.50;;
62479;SDS011;48526;48.846;2.322;2022-12-07T20:53:50;23.00;;;19.75;;
62479;SDS011;48526;48.846;2.322;2022-12-07T20:56:22;32.25;;;27.25;;
62479;SDS011;48526;48.846;2.322;2022-12-07T20:58:55;29.50;;;25.50;;
62479;SDS011;48526;48.846;2.322;2022-12-07T21:01:30;33.50;;;25.00;;
62479;SDS011;48526;48.846;2.322;2022-12-07T21:03:59;22.00;;;19.25;;
62479;SDS011;48526;48.846;2.322;2022-12-07T21:06:29;34.75;;;23.00;;
62479;SDS011;48526;48.846;2.322;2022-12-07T21:08:56;28.50;;;27.25;;
62479;SDS011;48526;48.846;2.322;2022-12-07T21:11:23;37.00;;;29.25;;
62479;SDS011;48526;48.846;2.322;2022-12-07T21:13:49;26.00;;;25.00;;
62479;SDS011;48526;48.846;2.322;2022-12-07T21:16:16;26.50;;;24.50;;
62479;SDS011;48526;48.846;2.322;2022-12-07T21:18:43;35.75;;;29.50;;
62479;SDS011;48526;48.846;2.322;2022-12-07T21:21:11;24.50;;;23.50;;
62479;SDS011;48526;48.846;2.322;2022-12-07T21:23:40;26.00;;;24.75;;